Time;durP1;ratioP1;P1;durP2;ratioP2;P2;SDS_P1;SDS_P2;PMS_P1;PMS_P2;Temp;Humidity;BMP_temperature;BMP_pressure;BME280_temperature;BME280_humidity;BME280_pressure;Samples;Min_cycle;Max_cycle;Signal;HPM_P1;HPM_P2
2022/10/20 00:01:38;;;;;;;12.05;6.00;;;;;;;7.39;100.00;101740.44;5051260;28;20419;-51
2022/10/20 00:04:06;;;;;;;12.48;6.10;;;;;;;7.35;100.00;101733.63;5050320;28;20040;-50
2022/10/20 00:06:34;;;;;;;14.05;6.38;;;;;;;7.41;100.00;101725.56;5049586;28;20049;-51
2022/10/20 00:09:03;;;;;;;9.85;6.15;;;;;;;7.44;100.00;101722.81;5051906;28;20118;-52
2022/10/20 00:11:32;;;;;;;11.00;5.90;;;;;;;7.42;100.00;101727.25;5034751;28;20049;-50
2022/10/20 00:14:01;;;;;;;9.90;6.03;;;;;;;7.34;100.00;101724.94;5052065;28;20041;-54
2022/10/20 00:16:31;;;;;;;10.57;5.85;;;;;;;7.39;100.00;101715.16;5034327;28;20049;-50
2022/10/20 00:19:01;;;;;;;12.45;5.53;;;;;;;7.37;100.00;101714.34;5050234;28;20515;-50
2022/10/20 00:21:29;;;;;;;10.25;6.18;;;;;;;7.32;100.00;101716.28;5048894;28;20048;-51
2022/10/20 00:24:00;;;;;;;12.38;5.72;;;;;;;7.36;100.00;101698.69;5052475;28;20460;-51
2022/10/20 00:26:29;;;;;;;10.73;6.07;;;;;;;7.38;100.00;101696.88;5033095;28;20102;-50
2022/10/20 00:28:57;;;;;;;9.73;5.68;;;;;;;7.34;100.00;101687.44;5049471;28;20041;-50
2022/10/20 00:31:26;;;;;;;10.25;6.47;;;;;;;7.27;100.00;101684.22;5049098;28;20049;-51
2022/10/20 00:33:54;;;;;;;10.55;6.22;;;;;;;7.19;100.00;101697.56;5048567;28;20041;-50
2022/10/20 00:36:24;;;;;;;9.75;6.40;;;;;;;7.20;100.00;101693.19;5051318;28;20126;-53
2022/10/20 00:38:58;;;;;;;11.60;6.85;;;;;;;7.10;100.00;101685.69;5029622;28;20479;-53
2022/10/20 00:41:27;;;;;;;9.95;6.22;;;;;;;7.16;100.00;101679.38;5048504;28;20565;-53
2022/10/20 00:43:58;;;;;;;11.07;6.45;;;;;;;7.16;100.00;101674.16;5048699;28;20411;-55
2022/10/20 00:46:32;;;;;;;13.23;6.63;;;;;;;7.10;100.00;101662.16;5051435;28;20055;-53
2022/10/20 00:49:03;;;;;;;11.32;6.93;;;;;;;7.06;100.00;101667.53;5052208;28;20036;-51
2022/10/20 00:51:34;;;;;;;13.85;6.45;;;;;;;7.07;100.00;101664.84;5051976;28;20045;-51
2022/10/20 00:54:07;;;;;;;11.60;6.30;;;;;;;7.12;100.00;101664.72;5052103;28;20044;-53
2022/10/20 00:56:39;;;;;;;11.93;6.00;;;;;;;7.11;100.00;101665.59;5051911;28;20522;-52
2022/10/20 00:59:08;;;;;;;12.07;6.72;;;;;;;7.14;100.00;101669.88;5051904;28;20057;-51
2022/10/20 01:01:37;;;;;;;15.02;6.63;;;;;;;7.15;100.00;101667.19;5051864;28;20063;-51
2022/10/20 01:04:06;;;;;;;11.43;6.20;;;;;;;7.19;100.00;101654.88;5051777;28;20053;-54
2022/10/20 01:06:35;;;;;;;10.82;6.75;;;;;;;7.23;100.00;101648.59;5049661;28;20120;-48
2022/10/20 01:09:05;;;;;;;13.48;7.35;;;;;;;7.13;100.00;101655.09;5047105;28;20041;-49
2022/10/20 01:11:41;;;;;;;12.82;6.22;;;;;;;7.16;100.00;101641.88;5051502;28;20051;-50
2022/10/20 01:14:26;;;;;;;11.60;6.00;;;;;;;7.19;100.00;101640.00;5051922;28;20487;-48
2022/10/20 01:17:04;;;;;;;11.65;6.15;;;;;;;7.13;100.00;101632.41;5051810;28;20052;-51
2022/10/20 01:19:59;;;;;;;10.40;6.32;;;;;;;7.15;100.00;101637.59;5051657;28;20495;-49
2022/10/20 01:22:42;;;;;;;12.45;6.65;;;;;;;7.13;100.00;101634.16;5047400;28;20080;-46
2022/10/20 01:25:24;;;;;;;11.93;6.10;;;;;;;7.12;100.00;101638.53;5030336;28;20049;-47
2022/10/20 01:27:58;;;;;;;9.88;6.55;;;;;;;7.10;100.00;101624.66;5055764;28;20049;-47
2022/10/20 01:30:27;;;;;;;11.32;6.35;;;;;;;7.09;100.00;101622.97;5055831;28;20120;-48
2022/10/20 01:33:19;;;;;;;11.93;6.18;;;;;;;7.11;100.00;101613.28;5055552;28;20045;-49
2022/10/20 01:35:54;;;;;;;11.55;6.47;;;;;;;6.99;100.00;101596.28;5055688;28;20507;-46
2022/10/20 01:38:30;;;;;;;11.70;6.82;;;;;;;7.00;100.00;101590.16;5051180;28;20052;-47
2022/10/20 01:41:02;;;;;;;15.35;7.20;;;;;;;6.93;100.00;101589.53;5052403;28;20083;-47
2022/10/20 01:43:35;;;;;;;13.00;6.95;;;;;;;6.90;100.00;101581.81;5055453;28;20049;-49
2022/10/20 01:46:05;;;;;;;10.80;6.82;;;;;;;6.96;100.00;101587.72;5055435;28;20056;-50
2022/10/20 01:48:39;;;;;;;11.60;6.90;;;;;;;6.97;100.00;101582.44;5055489;28;20426;-46
2022/10/20 01:51:09;;;;;;;10.45;6.53;;;;;;;7.00;100.00;101584.09;5037363;28;20462;-47
2022/10/20 01:53:37;;;;;;;14.13;6.20;;;;;;;6.93;100.00;101570.38;5055411;28;20056;-48
2022/10/20 01:56:13;;;;;;;10.60;6.28;;;;;;;6.89;100.00;101569.66;5055306;28;20151;-48
2022/10/20 01:59:16;;;;;;;14.35;6.68;;;;;;;6.87;100.00;101568.00;5055177;28;20045;-48
2022/10/20 02:02:00;;;;;;;14.35;7.07;;;;;;;6.90;100.00;101578.38;5054484;28;20119;-47
2022/10/20 02:04:36;;;;;;;9.70;5.97;;;;;;;6.96;100.00;101566.81;5051669;28;20068;-49
2022/10/20 02:07:15;;;;;;;12.07;6.68;;;;;;;6.96;100.00;101553.72;5051101;28;20049;-47
2022/10/20 02:09:48;;;;;;;10.00;5.85;;;;;;;6.98;100.00;101564.97;5050325;28;20048;-48
2022/10/20 02:12:21;;;;;;;10.52;6.05;;;;;;;6.99;100.00;101564.91;5054509;28;20053;-48
2022/10/20 02:14:52;;;;;;;14.18;6.90;;;;;;;6.88;100.00;101546.16;5054971;28;20048;-49
2022/10/20 02:17:21;;;;;;;11.65;6.45;;;;;;;6.89;100.00;101553.94;5054986;28;20060;-48
2022/10/20 02:19:52;;;;;;;10.98;6.18;;;;;;;6.87;100.00;101542.72;5054950;28;20049;-49
2022/10/20 02:22:21;;;;;;;10.88;6.57;;;;;;;6.93;100.00;101528.56;5054567;28;20084;-48
2022/10/20 02:24:50;;;;;;;12.50;6.43;;;;;;;6.98;100.00;101531.84;5054849;28;20380;-48
2022/10/20 02:27:24;;;;;;;11.00;6.00;;;;;;;6.89;100.00;101529.56;5054789;28;20037;-53
2022/10/20 02:29:58;;;;;;;10.77;6.43;;;;;;;6.84;100.00;101526.28;5052699;28;20072;-47
2022/10/20 02:32:29;;;;;;;13.32;6.88;;;;;;;6.82;100.00;101520.28;5050877;28;20176;-48
2022/10/20 02:34:57;;;;;;;10.98;6.30;;;;;;;6.89;100.00;101512.13;5036534;28;20057;-50
2022/10/20 02:37:31;;;;;;;11.23;6.82;;;;;;;6.82;100.00;101510.66;5053486;28;20127;-48
2022/10/20 02:40:00;;;;;;;12.00;6.82;;;;;;;6.82;100.00;101512.44;5034552;28;20045;-49
2022/10/20 02:42:28;;;;;;;12.30;6.47;;;;;;;6.81;100.00;101519.41;5050832;28;20053;-50
2022/10/20 02:44:57;;;;;;;11.80;6.88;;;;;;;6.79;100.00;101510.78;5032862;28;20135;-45
2022/10/20 02:47:26;;;;;;;11.00;6.90;;;;;;;6.72;100.00;101507.56;5033029;28;20496;-45
2022/10/20 02:49:54;;;;;;;13.60;6.53;;;;;;;6.72;100.00;101498.84;5054359;28;20052;-45
2022/10/20 02:52:22;;;;;;;12.40;6.45;;;;;;;6.73;100.00;101501.38;5037004;28;20450;-50
2022/10/20 02:54:50;;;;;;;12.18;6.85;;;;;;;6.75;100.00;101504.81;5054188;28;20080;-49
2022/10/20 02:57:18;;;;;;;11.48;6.85;;;;;;;6.75;100.00;101509.19;5054353;28;20048;-47
2022/10/20 02:59:46;;;;;;;11.48;7.00;;;;;;;6.82;100.00;101508.03;5053845;28;20114;-48
2022/10/20 03:02:16;;;;;;;11.35;6.68;;;;;;;6.83;100.00;101507.13;5054291;28;20508;-47
2022/10/20 03:04:44;;;;;;;10.80;5.95;;;;;;;6.81;100.00;101500.25;5053893;28;20526;-46
2022/10/20 03:07:12;;;;;;;13.00;6.88;;;;;;;6.79;100.00;101504.69;5052088;28;20048;-51
2022/10/20 03:09:40;;;;;;;13.73;7.03;;;;;;;6.79;100.00;101497.72;5049280;28;20446;-46
2022/10/20 03:12:08;;;;;;;12.93;6.28;;;;;;;6.78;100.00;101493.38;5052815;28;20052;-48
2022/10/20 03:14:37;;;;;;;11.40;6.50;;;;;;;6.75;100.00;101490.91;5050484;28;20045;-52
2022/10/20 03:17:05;;;;;;;13.85;6.60;;;;;;;6.76;100.00;101489.97;5051099;28;20040;-46
2022/10/20 03:19:34;;;;;;;10.38;7.05;;;;;;;6.64;100.00;101479.97;5053708;28;20049;-48
2022/10/20 03:22:02;;;;;;;12.80;6.88;;;;;;;6.67;100.00;101470.28;5053519;28;20539;-50
2022/10/20 03:24:30;;;;;;;12.20;7.03;;;;;;;6.74;100.00;101471.72;5053658;28;20053;-49
2022/10/20 03:26:58;;;;;;;11.27;6.28;;;;;;;6.72;100.00;101478.78;5050325;28;20033;-46
2022/10/20 03:29:27;;;;;;;12.30;7.28;;;;;;;6.69;100.00;101480.66;5049874;28;20048;-46
2022/10/20 03:31:55;;;;;;;12.52;6.57;;;;;;;6.67;100.00;101478.13;5050147;28;20045;-49
2022/10/20 03:34:26;;;;;;;11.43;6.75;;;;;;;6.67;100.00;101477.28;5051179;28;20467;-49
2022/10/20 03:36:55;;;;;;;12.18;6.78;;;;;;;6.67;100.00;101454.59;5053672;28;20037;-50
2022/10/20 03:39:23;;;;;;;14.48;7.20;;;;;;;6.70;100.00;101454.47;5053457;28;20041;-49
2022/10/20 03:41:51;;;;;;;11.80;6.95;;;;;;;6.75;100.00;101456.91;5053485;28;20068;-48
2022/10/20 03:44:19;;;;;;;11.63;6.20;;;;;;;6.74;100.00;101440.34;5053194;28;20045;-47
2022/10/20 03:46:47;;;;;;;13.32;6.72;;;;;;;6.73;100.00;101422.97;5053240;28;20049;-46
2022/10/20 03:49:16;;;;;;;12.65;6.80;;;;;;;6.80;100.00;101410.50;5035093;28;20080;-45
2022/10/20 03:51:44;;;;;;;12.15;6.72;;;;;;;6.66;100.00;101418.91;5053066;28;20048;-46
2022/10/20 03:54:13;;;;;;;13.60;7.03;;;;;;;6.65;100.00;101416.34;5048118;28;20538;-47
2022/10/20 03:56:44;;;;;;;12.75;6.88;;;;;;;6.68;100.00;101418.84;5050079;28;20036;-47
2022/10/20 03:59:12;;;;;;;11.88;6.72;;;;;;;6.60;100.00;101413.94;5032523;28;20048;-47
2022/10/20 04:01:44;;;;;;;11.38;6.60;;;;;;;6.61;100.00;101402.53;5052854;28;20123;-46
2022/10/20 04:04:12;;;;;;;;;;;;;;;6.62;100.00;101406.03;5053377;28;20048;-48
2022/10/20 04:06:41;;;;;;;14.02;6.82;;;;;;;6.68;100.00;101393.56;5053070;28;19998;-47
2022/10/20 04:09:09;;;;;;;13.98;6.95;;;;;;;6.63;100.00;101389.44;5052966;28;20052;-45
2022/10/20 04:11:38;;;;;;;14.27;7.28;;;;;;;6.59;100.00;101384.31;5052753;28;20051;-45
2022/10/20 04:14:06;;;;;;;12.07;7.40;;;;;;;6.64;100.00;101388.50;5052676;28;20099;-46
2022/10/20 04:16:34;;;;;;;10.20;6.55;;;;;;;6.63;100.00;101394.66;5034660;28;20047;-46
2022/10/20 04:19:02;;;;;;;11.13;6.82;;;;;;;6.64;100.00;101402.44;5052356;28;20056;-46
2022/10/20 04:21:31;;;;;;;13.75;7.18;;;;;;;6.62;100.00;101379.88;5034658;28;20049;-48
2022/10/20 04:23:59;;;;;;;14.50;7.97;;;;;;;6.67;100.00;101381.41;5052584;28;20120;-47
2022/10/20 04:26:28;;;;;;;16.48;7.53;;;;;;;6.66;100.00;101387.53;5052768;28;20041;-49
2022/10/20 04:28:59;;;;;;;13.60;6.82;;;;;;;6.70;100.00;101380.44;5050350;28;20122;-47
2022/10/20 04:31:27;;;;;;;11.88;7.45;;;;;;;6.76;100.00;101382.78;5048923;28;20049;-47
2022/10/20 04:33:55;;;;;;;16.50;6.80;;;;;;;6.74;100.00;101371.53;5048295;28;20131;-45
2022/10/20 04:36:23;;;;;;;13.93;7.50;;;;;;;6.75;100.00;101366.25;5049541;28;20077;-47
2022/10/20 04:38:51;;;;;;;11.80;7.20;;;;;;;6.77;100.00;101369.63;5052166;28;20045;-47
2022/10/20 04:41:19;;;;;;;12.77;7.63;;;;;;;6.80;100.00;101349.53;5051980;28;20056;-47
2022/10/20 04:43:50;;;;;;;13.75;7.55;;;;;;;6.82;100.00;101356.41;5052123;28;20495;-49
2022/10/20 04:46:20;;;;;;;15.57;7.97;;;;;;;6.84;100.00;101354.56;5051473;28;20049;-50
2022/10/20 04:48:48;;;;;;;11.73;7.10;;;;;;;6.86;100.00;101349.28;5048712;28;20409;-49
2022/10/20 04:51:16;;;;;;;13.00;7.82;;;;;;;6.90;100.00;101329.94;5049844;28;20052;-49
2022/10/20 04:53:44;;;;;;;12.15;7.43;;;;;;;6.88;100.00;101327.38;5048750;28;20053;-47
2022/10/20 04:56:17;;;;;;;17.10;7.50;;;;;;;6.85;100.00;101322.28;5048263;28;20071;-50
2022/10/20 04:58:48;;;;;;;11.00;7.03;;;;;;;6.87;100.00;101336.16;5051808;28;20049;-45
2022/10/20 05:01:17;;;;;;;13.25;7.40;;;;;;;6.94;100.00;101321.88;5051296;28;20043;-48
2022/10/20 05:03:46;;;;;;;13.45;7.82;;;;;;;6.91;100.00;101306.34;5051795;28;20087;-50
2022/10/20 05:06:17;;;;;;;14.65;6.95;;;;;;;6.96;100.00;101302.69;5051967;28;20051;-46
2022/10/20 05:08:46;;;;;;;13.57;7.80;;;;;;;6.90;100.00;101288.94;5051733;28;20098;-46
2022/10/20 05:11:16;;;;;;;11.27;7.25;;;;;;;6.94;100.00;101289.69;5051710;28;20508;-46
2022/10/20 05:13:44;;;;;;;13.93;7.07;;;;;;;6.90;100.00;101291.56;5051315;28;20410;-45
2022/10/20 05:16:13;;;;;;;13.90;7.85;;;;;;;6.90;100.00;101298.56;5048335;28;20106;-47
2022/10/20 05:18:41;;;;;;;13.93;7.63;;;;;;;6.96;100.00;101294.84;5050094;28;20381;-46
2022/10/20 05:21:13;;;;;;;13.70;7.72;;;;;;;6.96;100.00;101279.97;5048965;28;20107;-46
2022/10/20 05:23:42;;;;;;;12.52;8.27;;;;;;;6.98;100.00;101274.69;5046301;28;20061;-51
2022/10/20 05:26:13;;;;;;;16.02;9.23;;;;;;;6.98;100.00;101274.69;5047804;28;20415;-50
2022/10/20 05:28:44;;;;;;;14.18;8.27;;;;;;;6.97;100.00;101272.97;5050375;28;20558;-46
2022/10/20 05:31:13;;;;;;;12.85;7.80;;;;;;;7.01;100.00;101270.19;5051643;28;20060;-52
2022/10/20 05:33:44;;;;;;;14.07;8.02;;;;;;;7.04;100.00;101258.75;5051548;28;20045;-48
2022/10/20 05:36:16;;;;;;;15.27;8.00;;;;;;;7.06;100.00;101255.13;5051150;28;20114;-50
2022/10/20 05:38:49;;;;;;;14.40;8.65;;;;;;;7.10;100.00;101269.78;5047028;28;20049;-49
2022/10/20 05:41:19;;;;;;;16.48;8.15;;;;;;;7.09;100.00;101260.22;5049349;28;20045;-50
2022/10/20 05:43:49;;;;;;;13.10;8.95;;;;;;;7.06;100.00;101257.75;5049128;28;20083;-52
2022/10/20 05:46:18;;;;;;;16.70;7.90;;;;;;;7.09;100.00;101260.22;5048226;28;20053;-48
2022/10/20 05:48:46;;;;;;;13.63;8.35;;;;;;;7.12;100.00;101251.41;5051025;28;20491;-51
2022/10/20 05:51:18;;;;;;;15.13;8.70;;;;;;;7.18;100.00;101239.81;5051435;28;20049;-47
2022/10/20 05:53:47;;;;;;;17.00;7.88;;;;;;;7.16;100.00;101234.66;5051357;28;20523;-47
2022/10/20 05:56:18;;;;;;;15.15;9.02;;;;;;;7.12;100.00;101240.94;5051478;28;20048;-51
2022/10/20 05:58:47;;;;;;;15.15;8.70;;;;;;;7.13;100.00;101242.66;5051563;28;20144;-50
2022/10/20 06:01:19;;;;;;;14.38;8.20;;;;;;;7.14;100.00;101243.47;5048170;28;20053;-49
2022/10/20 06:03:48;;;;;;;16.38;8.07;;;;;;;7.18;100.00;101255.50;5048120;28;20087;-48
2022/10/20 06:06:19;;;;;;;15.38;9.18;;;;;;;7.20;100.00;101257.16;5047387;28;20049;-49
2022/10/20 06:08:49;;;;;;;15.95;8.80;;;;;;;7.20;100.00;101253.66;5046940;28;21074;-51
2022/10/20 06:11:19;;;;;;;14.23;8.52;;;;;;;7.24;100.00;101240.38;5048000;28;20487;-53
2022/10/20 06:13:47;;;;;;;14.85;8.73;;;;;;;7.24;100.00;101234.28;5051318;28;20095;-53
2022/10/20 06:16:22;;;;;;;14.88;8.55;;;;;;;7.26;100.00;101222.00;5052295;28;20467;-47
2022/10/20 06:18:51;;;;;;;13.95;8.57;;;;;;;7.22;100.00;101202.97;5053188;28;20523;-46
2022/10/20 06:21:23;;;;;;;13.82;8.32;;;;;;;7.23;100.00;101191.59;5051524;28;20047;-46
2022/10/20 06:23:51;;;;;;;14.85;9.35;;;;;;;7.29;100.00;101227.09;5049524;28;20092;-52
2022/10/20 06:26:21;;;;;;;14.68;8.82;;;;;;;7.36;100.00;101272.16;5051376;28;20128;-53
2022/10/20 06:28:51;;;;;;;15.43;8.45;;;;;;;7.44;100.00;101288.34;5051485;28;20095;-52
2022/10/20 06:31:21;;;;;;;15.95;8.63;;;;;;;7.38;100.00;101272.94;5054554;28;20077;-52
2022/10/20 06:33:50;;;;;;;14.88;8.60;;;;;;;7.35;100.00;101278.28;5054466;28;20053;-50
2022/10/20 06:36:21;;;;;;;13.73;7.93;;;;;;;7.39;100.00;101287.69;5036682;28;20040;-50
2022/10/20 06:38:54;;;;;;;14.65;9.43;;;;;;;7.42;100.00;101280.56;5054407;28;20495;-47
2022/10/20 06:41:22;;;;;;;16.65;8.52;;;;;;;7.42;100.00;101269.28;5054289;28;20393;-49
2022/10/20 06:43:53;;;;;;;15.52;9.65;;;;;;;7.42;100.00;101258.81;5054305;28;20522;-52
2022/10/20 06:46:21;;;;;;;14.18;8.50;;;;;;;7.42;100.00;101277.13;5054268;28;20068;-49
2022/10/20 06:48:50;;;;;;;15.00;9.55;;;;;;;7.45;100.00;101293.50;5054161;28;20124;-47
2022/10/20 06:51:26;;;;;;;15.02;8.60;;;;;;;7.51;100.00;101270.59;5050678;28;20045;-51
2022/10/20 06:53:54;;;;;;;14.88;8.70;;;;;;;7.58;100.00;101264.16;5048985;28;20041;-51
2022/10/20 06:56:25;;;;;;;15.57;8.68;;;;;;;7.60;100.00;101264.97;5050660;28;20508;-51
2022/10/20 06:58:55;;;;;;;16.20;9.40;;;;;;;7.57;100.00;101263.31;5050657;28;20037;-52
2022/10/20 07:01:25;;;;;;;15.52;8.73;;;;;;;7.57;100.00;101245.00;5051088;28;20053;-50
2022/10/20 07:03:55;;;;;;;14.93;9.00;;;;;;;7.56;100.00;101253.78;5050464;28;20056;-50
2022/10/20 07:06:27;;;;;;;13.57;9.10;;;;;;;7.58;100.00;101256.31;5050722;28;20110;-50
2022/10/20 07:08:56;;;;;;;17.80;9.00;;;;;;;7.63;100.00;101262.19;5050659;28;20049;-52
2022/10/20 07:11:26;;;;;;;15.45;9.77;;;;;;;7.69;100.00;101251.44;5050552;28;20094;-50
2022/10/20 07:13:55;;;;;;;16.63;9.13;;;;;;;7.71;100.00;101241.75;5053434;28;20051;-48
2022/10/20 07:16:24;;;;;;;14.68;9.02;;;;;;;7.75;100.00;101235.44;5050848;28;20055;-49
2022/10/20 07:18:53;;;;;;;13.85;8.55;;;;;;;7.76;100.00;101245.00;5049953;28;20048;-50
2022/10/20 07:21:22;;;;;;;16.33;9.20;;;;;;;7.86;100.00;101255.88;5032151;28;20148;-47
2022/10/20 07:23:52;;;;;;;18.35;9.13;;;;;;;7.90;100.00;101254.81;5033552;28;20103;-48
2022/10/20 07:26:22;;;;;;;15.65;9.50;;;;;;;7.93;100.00;101254.69;5035864;28;20073;-50
2022/10/20 07:28:52;;;;;;;17.38;10.30;;;;;;;7.99;100.00;101229.09;5053183;28;20072;-45
2022/10/20 07:31:24;;;;;;;16.27;8.85;;;;;;;8.04;100.00;101225.34;5050448;28;20045;-46
2022/10/20 07:33:53;;;;;;;14.52;10.07;;;;;;;8.14;100.00;101225.75;5051464;28;20052;-47
2022/10/20 07:36:42;;;;;;;16.20;9.40;;;;;;;8.15;100.00;101221.34;5053374;28;20582;-46
2022/10/20 07:39:13;;;;;;;14.95;8.98;;;;;;;8.12;100.00;101235.44;5053314;28;20045;-49
2022/10/20 07:41:44;;;;;;;14.68;9.50;;;;;;;8.19;100.00;101228.97;5035634;28;20052;-50
2022/10/20 07:44:12;;;;;;;15.73;9.18;;;;;;;8.22;100.00;101238.47;5053187;28;20148;-52
2022/10/20 07:46:41;;;;;;;15.05;8.75;;;;;;;8.25;100.00;101231.31;5052975;28;20052;-50
2022/10/20 07:49:09;;;;;;;14.63;9.10;;;;;;;8.31;100.00;101226.69;5053053;28;20041;-53
2022/10/20 07:51:57;;;;;;;13.85;8.52;;;;;;;8.36;100.00;101229.94;5053213;28;20049;-54
2022/10/20 07:54:26;;;;;;;16.33;9.82;;;;;;;8.38;100.00;101228.91;5053276;28;20063;-54
2022/10/20 07:56:54;;;;;;;15.50;10.15;;;;;;;8.42;100.00;101232.25;5052817;28;20057;-53
2022/10/20 07:59:23;;;;;;;18.30;10.40;;;;;;;8.47;100.00;101238.16;5052964;28;20037;-52
2022/10/20 08:01:51;;;;;;;15.40;9.65;;;;;;;8.57;100.00;101228.03;5034950;28;20056;-47
2022/10/20 08:04:25;;;;;;;14.77;9.40;;;;;;;8.62;100.00;101226.88;5052855;28;20110;-46
2022/10/20 08:06:53;;;;;;;14.35;9.40;;;;;;;8.68;100.00;101219.63;5052599;28;20532;-47
2022/10/20 08:09:21;;;;;;;13.73;9.52;;;;;;;8.73;100.00;101225.50;5050699;28;20059;-51
2022/10/20 08:11:51;;;;;;;14.77;9.70;;;;;;;8.73;100.00;101218.47;5049661;28;20147;-48
2022/10/20 08:14:25;;;;;;;19.35;10.82;;;;;;;8.79;100.00;101220.78;5049402;28;20068;-48
2022/10/20 08:16:54;;;;;;;16.80;9.63;;;;;;;8.84;100.00;101201.34;5049115;28;20048;-46
2022/10/20 08:19:31;;;;;;;15.68;9.75;;;;;;;8.90;100.00;101214.13;5049074;28;20045;-46
2022/10/20 08:22:06;;;;;;;15.85;9.85;;;;;;;8.98;100.00;101211.09;5050529;28;20472;-49
2022/10/20 08:24:34;;;;;;;15.73;9.50;;;;;;;9.07;100.00;101210.63;5052523;28;20077;-51
2022/10/20 08:27:04;;;;;;;15.00;10.57;;;;;;;9.16;100.00;101197.00;5052485;28;20405;-52
2022/10/20 08:29:32;;;;;;;15.30;10.43;;;;;;;9.26;100.00;101200.84;5052290;28;20056;-51
2022/10/20 08:32:00;;;;;;;19.55;10.13;;;;;;;9.32;100.00;101193.56;5052477;28;20049;-47
2022/10/20 08:34:28;;;;;;;16.23;10.45;;;;;;;9.38;100.00;101199.31;5052215;28;20099;-49
2022/10/20 08:36:56;;;;;;;15.32;9.82;;;;;;;9.56;100.00;101188.75;5049098;28;20102;-50
2022/10/20 08:39:24;;;;;;;17.60;10.60;;;;;;;9.64;100.00;101173.41;5047640;28;20073;-50
2022/10/20 08:41:54;;;;;;;17.92;10.45;;;;;;;9.75;100.00;101172.81;5051819;28;20092;-46
2022/10/20 08:47:33;;;;;;;18.98;10.50;;;;;;;10.04;100.00;101175.56;5146177;27;20886;-48
2022/10/20 08:50:02;;;;;;;16.40;10.63;;;;;;;10.15;100.00;101179.25;5128863;28;20051;-51
2022/10/20 08:52:30;;;;;;;15.23;9.63;;;;;;;10.28;100.00;101183.78;5130166;27;20100;-47
2022/10/20 08:54:59;;;;;;;15.82;10.32;;;;;;;10.41;100.00;101168.19;5130005;27;20127;-53
2022/10/20 08:57:30;;;;;;;16.02;9.85;;;;;;;10.44;100.00;101162.72;5130019;27;20050;-51
2022/10/20 09:00:13;;;;;;;15.07;10.00;;;;;;;10.55;100.00;101154.19;5130189;27;20058;-51
2022/10/20 09:02:43;;;;;;;16.92;11.00;;;;;;;10.70;100.00;101160.31;5129928;27;20059;-52
2022/10/20 09:05:12;;;;;;;16.20;10.45;;;;;;;10.77;100.00;101157.22;5129910;27;20070;-52
2022/10/20 09:07:48;;;;;;;16.27;9.55;;;;;;;10.95;100.00;101155.25;5129861;27;20435;-51
2022/10/20 09:10:33;;;;;;;15.27;10.35;;;;;;;11.22;100.00;101153.63;5130032;27;20039;-57
2022/10/20 09:13:02;;;;;;;15.70;10.15;;;;;;;11.32;100.00;101162.63;5129792;27;20054;-57
2022/10/20 09:15:31;;;;;;;16.58;10.20;;;;;;;11.39;100.00;101157.84;5129087;27;20455;-57
2022/10/20 09:18:03;;;;;;;15.50;10.25;;;;;;;11.41;100.00;101158.56;5126248;27;20130;-57
2022/10/20 09:20:37;;;;;;;14.63;9.60;;;;;;;11.49;100.00;101156.28;5127794;28;20513;-57
2022/10/20 09:23:05;;;;;;;15.65;9.63;;;;;;;11.57;100.00;101153.16;5127180;27;20634;-58
2022/10/20 09:25:53;;;;;;;16.77;10.85;;;;;;;11.65;100.00;101150.88;5126186;27;20077;-57
2022/10/20 09:28:24;;;;;;;14.32;10.35;;;;;;;11.72;100.00;101141.63;5126193;27;20086;-57
2022/10/20 09:30:52;;;;;;;16.30;10.73;;;;;;;11.76;100.00;101143.13;5126555;27;20040;-58
2022/10/20 09:33:29;;;;;;;15.88;9.95;;;;;;;11.82;100.00;101148.00;5124415;27;20067;-57
2022/10/20 09:36:05;;;;;;;17.77;10.35;;;;;;;11.90;100.00;101149.28;5128343;27;20142;-57
2022/10/20 09:38:35;;;;;;;15.30;10.00;;;;;;;11.95;100.00;101142.78;5127163;27;20124;-58
2022/10/20 09:41:10;;;;;;;16.80;9.60;;;;;;;11.96;100.00;101131.31;5126205;27;20062;-53
2022/10/20 09:43:41;;;;;;;15.85;10.52;;;;;;;11.99;100.00;101138.16;5127861;27;20080;-49
2022/10/20 09:46:11;;;;;;;14.18;9.88;;;;;;;12.04;100.00;101136.06;5128835;27;20047;-52
2022/10/20 09:48:46;;;;;;;15.43;10.10;;;;;;;12.10;100.00;101130.38;5129080;27;20044;-50
2022/10/20 09:51:18;;;;;;;15.00;10.60;;;;;;;12.11;100.00;101131.25;5129167;27;20047;-50
2022/10/20 09:53:52;;;;;;;14.60;10.20;;;;;;;12.29;100.00;101135.25;5128949;27;20502;-50
2022/10/20 09:56:26;;;;;;;17.90;10.23;;;;;;;12.26;100.00;101137.28;5128937;27;20074;-51
2022/10/20 09:58:56;;;;;;;17.30;12.10;;;;;;;12.30;100.00;101125.56;5114637;28;20100;-52
2022/10/20 10:01:24;;;;;;;22.60;11.88;;;;;;;12.32;100.00;101113.97;5115116;28;20040;-53
2022/10/20 10:04:00;;;;;;;17.63;11.60;;;;;;;12.39;100.00;101110.91;5115056;28;20039;-53
2022/10/20 10:06:41;;;;;;;17.52;11.60;;;;;;;12.32;100.00;101121.88;5114872;28;20123;-51
2022/10/20 10:09:27;;;;;;;19.85;10.60;;;;;;;12.43;100.00;101117.66;5110244;27;20051;-51
2022/10/20 10:12:01;;;;;;;16.00;10.35;;;;;;;12.46;100.00;101114.78;5111568;28;20118;-57
2022/10/20 10:14:36;;;;;;;16.15;9.43;;;;;;;12.55;100.00;101123.88;5111155;28;20044;-57
2022/10/20 10:17:04;;;;;;;16.02;10.25;;;;;;;12.53;100.00;101118.72;5126834;27;20096;-57
2022/10/20 10:19:34;;;;;;;14.20;10.07;;;;;;;12.62;100.00;101128.59;5111144;28;20559;-57
2022/10/20 10:22:04;;;;;;;15.07;10.00;;;;;;;12.59;100.00;101115.63;5110712;28;20055;-49
2022/10/20 10:24:42;;;;;;;15.13;10.15;;;;;;;12.65;100.00;101117.88;5109130;28;20051;-58
2022/10/20 10:27:22;;;;;;;16.13;10.45;;;;;;;12.70;100.00;101116.69;5110739;28;20039;-57
2022/10/20 10:29:51;;;;;;;17.25;10.30;;;;;;;12.76;100.00;101100.41;5111048;28;20101;-57
2022/10/20 10:32:24;;;;;;;13.48;10.55;;;;;;;12.85;100.00;101115.63;5114041;27;20039;-58
2022/10/20 10:35:13;;;;;;;15.68;10.45;;;;;;;12.89;100.00;101117.09;5114431;28;20100;-57
2022/10/20 10:37:43;;;;;;;15.95;10.95;;;;;;;12.88;100.00;101118.03;5114270;27;20050;-57
2022/10/20 10:40:15;;;;;;;14.98;11.07;;;;;;;12.95;100.00;101115.81;5114451;28;20514;-57
2022/10/20 10:43:15;;;;;;;21.65;11.45;;;;;;;13.03;100.00;101118.75;5114190;27;20051;-56
2022/10/20 10:45:52;;;;;;;19.83;12.23;;;;;;;12.92;100.00;101126.59;5081526;28;20120;-56
2022/10/20 10:49:14;;;;;;;14.68;11.13;;;;;;;12.98;100.00;101118.25;5104700;28;20405;-58
2022/10/20 10:51:56;;;;;;;15.20;11.00;;;;;;;13.01;100.00;101125.94;5088294;28;20104;-58
2022/10/20 10:54:42;;;;;;;18.23;11.18;;;;;;;13.06;100.00;101121.19;5025638;28;20505;-56
2022/10/20 10:57:18;;;;;;;16.88;11.50;;;;;;;13.09;100.00;101126.25;5067308;28;20047;-50
2022/10/20 10:59:51;;;;;;;15.30;11.32;;;;;;;13.29;100.00;101124.81;5050449;28;20104;-51
2022/10/20 11:03:00;;;;;;;16.98;11.43;;;;;;;13.30;100.00;101126.47;5097892;28;20473;-52
2022/10/20 11:05:45;;;;;;;19.42;11.35;;;;;;;13.36;100.00;101117.28;5085428;28;20105;-51
2022/10/20 11:08:26;;;;;;;17.48;11.52;;;;;;;13.33;100.00;101113.06;5091209;28;20040;-58
2022/10/20 11:11:03;;;;;;;18.83;11.25;;;;;;;13.32;100.00;101108.75;5093508;28;20052;-56
2022/10/20 11:13:37;;;;;;;16.48;11.57;;;;;;;13.30;100.00;101094.78;5091132;28;20048;-57
2022/10/20 11:16:18;;;;;;;18.95;12.07;;;;;;;13.24;100.00;101092.59;5090525;28;20048;-56
2022/10/20 11:19:18;;;;;;;19.77;10.52;;;;;;;13.31;100.00;101079.81;5091583;28;20127;-56
2022/10/20 11:22:00;;;;;;;14.68;10.48;;;;;;;13.33;100.00;101084.03;5093729;28;20060;-57
2022/10/20 11:24:43;;;;;;;17.25;10.45;;;;;;;13.40;100.00;101078.31;5093666;28;20479;-52
2022/10/20 11:27:13;;;;;;;;;;;;;;;13.39;100.00;101071.31;5094186;28;20556;-51
2022/10/20 11:29:44;;;;;;;19.83;11.82;;;;;;;13.35;100.00;101079.47;5092446;28;20306;-52
2022/10/20 11:32:21;;;;;;;17.80;11.85;;;;;;;13.38;100.00;101065.22;5093813;28;20047;-49
2022/10/20 11:34:56;;;;;;;17.05;12.88;;;;;;;13.40;100.00;101065.94;5093544;28;20039;-47
2022/10/20 11:37:27;;;;;;;16.55;11.93;;;;;;;13.44;100.00;101069.19;5093546;28;20043;-48
2022/10/20 11:40:04;;;;;;;17.15;11.75;;;;;;;13.42;100.00;101050.81;5093397;28;20101;-51